createdAt,value
2022-07-29T00:02:43.248Z,1.67
2022-07-29T00:06:29.166Z,1.33
2022-07-29T00:10:28.124Z,1.40
2022-07-29T00:14:20.125Z,1.40
2022-07-29T00:18:05.222Z,1.50
2022-07-29T00:21:50.188Z,1.75
2022-07-29T00:25:42.142Z,1.52
2022-07-29T00:29:35.855Z,1.85
2022-07-29T00:33:27.148Z,1.80
2022-07-29T00:37:12.100Z,1.80
2022-07-29T00:40:57.208Z,1.70
2022-07-29T00:44:49.114Z,1.83
2022-07-29T00:48:41.151Z,1.80
2022-07-29T00:52:26.151Z,2.00
2022-07-29T00:56:18.128Z,2.00
2022-07-29T01:00:03.168Z,1.85
2022-07-29T01:03:55.147Z,2.45
2022-07-29T01:07:36.006Z,1.75
2022-07-29T01:11:32.171Z,1.70
2022-07-29T01:15:10.645Z,1.95
2022-07-29T01:19:06.139Z,2.25
2022-07-29T01:23:06.175Z,1.50
2022-07-29T01:27:09.140Z,1.70
2022-07-29T01:30:57.423Z,1.67
2022-07-29T01:34:56.145Z,2.00
2022-07-29T01:38:45.254Z,2.05
2022-07-29T01:42:53.163Z,1.50
2022-07-29T01:46:44.223Z,1.93
2022-07-29T01:50:37.238Z,1.67
2022-07-29T01:54:36.156Z,1.75
2022-07-29T01:58:29.252Z,1.65
2022-07-29T02:02:16.245Z,2.17
2022-07-29T02:06:11.148Z,2.00
2022-07-29T02:09:51.594Z,2.03
2022-07-29T02:13:44.149Z,2.50
2022-07-29T02:18:02.169Z,2.35
2022-07-29T02:21:48.161Z,2.50
2022-07-29T02:25:47.177Z,2.07
2022-07-29T02:29:41.173Z,2.38
2022-07-29T02:33:22.241Z,2.13
2022-07-29T02:37:19.162Z,2.10
2022-07-29T02:40:59.281Z,2.43
2022-07-29T02:44:51.181Z,2.70
2022-07-29T02:48:47.205Z,2.80
2022-07-29T02:52:54.710Z,1.85
2022-07-29T02:56:49.191Z,2.23
2022-07-29T03:00:42.195Z,2.20
2022-07-29T03:04:30.376Z,2.15
2022-07-29T03:08:19.201Z,2.40
2022-07-29T03:12:04.867Z,2.50
2022-07-29T03:15:52.224Z,2.40
2022-07-29T03:19:37.244Z,2.47
2022-07-29T03:23:27.199Z,2.50
2022-07-29T03:27:25.205Z,2.78
2022-07-29T03:31:10.553Z,2.10
2022-07-29T03:35:02.199Z,2.60
2022-07-29T03:38:50.181Z,2.25
2022-07-29T03:42:46.239Z,2.13
2022-07-29T03:46:27.185Z,1.98
2022-07-29T03:50:24.193Z,2.10
2022-07-29T03:54:13.876Z,2.30
2022-07-29T03:58:05.218Z,1.52
2022-07-29T04:01:51.270Z,2.85
2022-07-29T04:05:43.207Z,2.13
2022-07-29T04:09:28.192Z,2.17
2022-07-29T04:13:20.258Z,2.33
2022-07-29T04:17:20.230Z,1.80
2022-07-29T04:21:12.263Z,2.27
2022-07-29T04:25:03.524Z,1.90
2022-07-29T04:28:50.215Z,1.50
2022-07-29T04:32:42.253Z,1.27
2022-07-29T04:36:29.578Z,1.90
2022-07-29T04:40:22.247Z,1.90
2022-07-29T04:44:12.254Z,1.65
2022-07-29T04:48:04.226Z,1.75
2022-07-29T04:51:42.676Z,1.98
2022-07-29T04:55:34.279Z,1.60
2022-07-29T04:59:12.566Z,1.57
2022-07-29T05:03:05.274Z,2.05
2022-07-29T05:06:43.640Z,1.30
2022-07-29T05:10:35.261Z,1.35
2022-07-29T05:14:20.669Z,1.50
2022-07-29T05:18:12.238Z,1.50
2022-07-29T05:22:04.243Z,1.17
2022-07-29T05:25:49.326Z,1.67
2022-07-29T05:29:48.303Z,1.35
2022-07-29T05:33:40.264Z,1.37
2022-07-29T05:37:25.270Z,1.57
2022-07-29T05:41:17.292Z,1.55
2022-07-29T05:44:55.331Z,1.30
2022-07-29T05:48:47.319Z,1.77
2022-07-29T05:52:32.313Z,1.40
2022-07-29T05:56:31.286Z,1.20
2022-07-29T06:00:23.258Z,1.30
2022-07-29T06:04:01.435Z,1.27
2022-07-29T06:07:53.275Z,1.10
2022-07-29T06:11:38.264Z,1.43
2022-07-29T06:15:30.277Z,1.63
2022-07-29T06:19:15.305Z,1.40
2022-07-29T06:23:00.719Z,1.30
2022-07-29T06:26:56.299Z,1.42
2022-07-29T06:30:41.457Z,1.70
2022-07-29T06:34:33.281Z,1.80
2022-07-29T06:38:31.416Z,1.85
2022-07-29T06:42:24.301Z,2.10
2022-07-29T06:46:11.345Z,1.70
2022-07-29T06:49:56.390Z,1.67
2022-07-29T06:54:00.024Z,1.65
2022-07-29T06:57:49.348Z,1.55
2022-07-29T07:01:56.394Z,1.63
2022-07-29T07:05:48.307Z,1.15
2022-07-29T07:09:40.516Z,1.30
2022-07-29T07:13:42.302Z,1.33
2022-07-29T07:17:34.330Z,1.25
2022-07-29T07:21:12.410Z,1.50
2022-07-29T07:25:11.337Z,1.33
2022-07-29T07:28:56.328Z,1.10
2022-07-29T07:32:48.309Z,1.40
2022-07-29T07:36:27.414Z,1.13
2022-07-29T07:40:20.360Z,1.48
2022-07-29T07:44:16.017Z,1.53
2022-07-29T07:47:56.702Z,1.30
2022-07-29T07:51:50.770Z,1.38
2022-07-29T07:56:07.686Z,0.95
2022-07-29T07:59:48.320Z,1.15
2022-07-29T08:03:41.414Z,1.20
2022-07-29T08:07:26.372Z,1.33
2022-07-29T08:11:18.423Z,1.05
2022-07-29T08:15:04.513Z,1.23
2022-07-29T08:19:04.358Z,0.85
2022-07-29T08:22:56.359Z,1.30
2022-07-29T08:26:34.457Z,1.20
2022-07-29T08:30:26.371Z,1.10
2022-07-29T08:34:11.376Z,1.05
2022-07-29T08:38:04.486Z,1.00
2022-07-29T08:41:56.807Z,1.00
2022-07-29T08:45:52.518Z,0.73
2022-07-29T08:49:30.481Z,1.30
2022-07-29T08:53:25.378Z,1.27
2022-07-29T08:57:17.352Z,0.98
2022-07-29T09:01:03.408Z,1.00
2022-07-29T09:04:51.476Z,0.90
2022-07-29T09:08:38.424Z,1.10
2022-07-29T09:12:32.732Z,1.30
2022-07-29T09:16:37.479Z,1.08
2022-07-29T09:20:54.541Z,1.40
2022-07-29T09:24:42.386Z,1.40
2022-07-29T09:28:34.379Z,0.93
2022-07-29T09:32:19.394Z,0.90
2022-07-29T09:36:19.369Z,1.00
2022-07-29T09:40:05.466Z,0.83
2022-07-29T09:44:13.461Z,1.07
2022-07-29T09:47:58.391Z,1.35
2022-07-29T09:51:44.509Z,3.08
2022-07-29T09:55:36.440Z,1.30
2022-07-29T09:59:16.492Z,1.17
2022-07-29T10:03:09.460Z,1.00
2022-07-29T10:07:14.441Z,1.17
2022-07-29T10:11:23.471Z,1.30
2022-07-29T10:15:09.385Z,1.35
2022-07-29T10:19:01.454Z,1.60
2022-07-29T10:22:53.538Z,1.60
2022-07-29T10:26:48.475Z,1.23
2022-07-29T10:30:28.642Z,2.30
2022-07-29T10:34:42.440Z,1.63
2022-07-29T10:38:55.421Z,1.60
2022-07-29T10:42:50.513Z,1.60
2022-07-29T10:46:37.490Z,1.83
2022-07-29T10:50:30.435Z,1.42
2022-07-29T10:54:08.941Z,1.35
2022-07-29T10:58:19.002Z,1.87
2022-07-29T11:02:35.368Z,1.13
2022-07-29T11:06:18.015Z,1.50
2022-07-29T11:10:20.165Z,1.75
2022-07-29T11:14:12.460Z,1.57
2022-07-29T11:18:06.476Z,2.10
2022-07-29T11:22:05.704Z,2.72
2022-07-29T11:26:28.564Z,1.95
2022-07-29T11:30:14.623Z,2.20
2022-07-29T11:34:28.159Z,2.45
2022-07-29T11:38:36.482Z,2.15
2022-07-29T11:42:41.986Z,1.80
2022-07-29T11:46:54.475Z,2.00
2022-07-29T11:50:51.457Z,2.33
2022-07-29T11:54:57.286Z,1.63
2022-07-29T11:58:43.588Z,2.03
2022-07-29T12:02:38.139Z,2.40
2022-07-29T12:06:23.503Z,2.60
2022-07-29T12:10:11.593Z,2.78
2022-07-29T12:14:11.517Z,3.17
2022-07-29T12:17:53.896Z,2.70
2022-07-29T12:22:02.341Z,2.70
2022-07-29T12:25:49.939Z,2.47
2022-07-29T12:29:35.898Z,2.10
2022-07-29T12:33:26.506Z,2.53
2022-07-29T12:37:18.483Z,2.28
2022-07-29T12:40:57.036Z,2.10
2022-07-29T12:45:04.490Z,2.88
2022-07-29T12:48:50.538Z,2.40
2022-07-29T12:52:38.563Z,2.85
2022-07-29T12:56:42.746Z,1.97
2022-07-29T13:00:38.620Z,2.55
2022-07-29T13:04:28.401Z,2.20
2022-07-29T13:08:27.502Z,2.27
2022-07-29T13:12:14.150Z,1.97
2022-07-29T13:16:21.544Z,1.90
2022-07-29T13:20:19.529Z,2.53
2022-07-29T13:24:11.510Z,3.10
2022-07-29T13:27:49.810Z,2.53
2022-07-29T13:31:41.606Z,2.80
2022-07-29T13:35:27.540Z,3.30
2022-07-29T13:39:19.557Z,2.43
2022-07-29T13:42:57.882Z,3.28
2022-07-29T13:46:49.562Z,2.97
2022-07-29T13:50:34.528Z,2.55
2022-07-29T13:54:19.740Z,1.70
2022-07-29T13:58:11.556Z,2.63
2022-07-29T14:01:57.726Z,2.22
2022-07-29T14:05:49.658Z,2.97
2022-07-29T14:09:41.714Z,3.00
2022-07-29T14:13:41.027Z,2.03
2022-07-29T14:17:32.797Z,2.80
2022-07-29T14:21:17.616Z,1.98
2022-07-29T14:25:16.703Z,2.95
2022-07-29T14:29:08.581Z,3.30
2022-07-29T14:32:53.591Z,3.10
2022-07-29T14:36:45.560Z,2.45
2022-07-29T14:40:23.670Z,3.20
2022-07-29T14:44:15.656Z,3.03
2022-07-29T14:48:01.617Z,3.17
2022-07-29T14:51:53.684Z,3.03
2022-07-29T14:55:32.732Z,2.88
2022-07-29T14:59:24.598Z,2.57
2022-07-29T15:03:11.197Z,2.58
2022-07-29T15:07:03.604Z,3.38
2022-07-29T15:10:49.607Z,2.78
2022-07-29T15:14:41.608Z,2.70
2022-07-29T15:18:25.383Z,2.33
2022-07-29T15:22:17.605Z,2.50
2022-07-29T15:25:55.687Z,2.20
2022-07-29T15:29:51.656Z,2.83
2022-07-29T15:33:36.590Z,2.08
2022-07-29T15:37:48.948Z,2.85
2022-07-29T15:41:41.677Z,2.80
2022-07-29T15:45:19.696Z,2.38
2022-07-29T15:49:13.743Z,2.17
2022-07-29T15:52:58.654Z,1.77
2022-07-29T15:56:44.033Z,1.83
2022-07-29T16:00:35.690Z,1.88
2022-07-29T16:04:20.692Z,2.33
2022-07-29T16:08:12.624Z,2.85
2022-07-29T16:11:53.593Z,3.23
2022-07-29T16:15:45.649Z,2.53
2022-07-29T16:19:40.996Z,2.15
2022-07-29T16:23:32.659Z,2.20
2022-07-29T16:27:17.639Z,2.33
2022-07-29T16:31:09.699Z,2.93
2022-07-29T16:34:48.088Z,2.25
2022-07-29T16:38:39.660Z,2.33
2022-07-29T16:42:46.162Z,2.20
2022-07-29T16:46:39.050Z,2.33
2022-07-29T16:50:20.276Z,1.87
2022-07-29T16:54:11.658Z,2.20
2022-07-29T16:57:52.665Z,2.13
2022-07-29T17:01:44.818Z,2.28
2022-07-29T17:05:29.641Z,2.53
2022-07-29T17:09:41.694Z,1.63
2022-07-29T17:13:20.133Z,2.35
2022-07-29T17:17:16.693Z,1.40
2022-07-29T17:21:05.694Z,1.88
2022-07-29T17:24:57.686Z,1.67
2022-07-29T17:28:35.998Z,1.60
2022-07-29T17:32:27.682Z,1.75
2022-07-29T17:36:31.679Z,1.40
2022-07-29T17:40:16.785Z,1.17
2022-07-29T17:44:01.666Z,1.60
2022-07-29T17:47:53.717Z,1.38
2022-07-29T17:51:38.692Z,1.55
2022-07-29T17:55:23.768Z,1.10
2022-07-29T17:59:16.758Z,0.93
2022-07-29T18:03:01.730Z,1.00
2022-07-29T18:06:53.701Z,1.10
2022-07-29T18:10:32.113Z,0.90
2022-07-29T18:14:24.709Z,1.15
2022-07-29T18:18:10.713Z,1.05
2022-07-29T18:22:05.111Z,1.03
2022-07-29T18:25:51.739Z,1.10
2022-07-29T18:29:51.143Z,0.80
2022-07-29T18:33:42.712Z,0.93
2022-07-29T18:38:01.160Z,1.02
2022-07-29T18:41:32.723Z,1.30
2022-07-29T18:45:19.541Z,1.08
2022-07-29T18:49:11.864Z,1.23
2022-07-29T18:52:51.295Z,1.10
2022-07-29T18:56:42.748Z,1.15
2022-07-29T19:00:34.758Z,1.20
2022-07-29T19:04:26.737Z,0.90
2022-07-29T19:08:06.436Z,1.48
2022-07-29T19:12:01.886Z,1.27
2022-07-29T19:15:41.831Z,1.33
2022-07-29T19:19:33.774Z,1.10
2022-07-29T19:23:25.716Z,1.15
2022-07-29T19:27:10.740Z,1.00
2022-07-29T19:31:02.793Z,0.98
2022-07-29T19:34:44.783Z,1.05
2022-07-29T19:38:41.740Z,1.17
2022-07-29T19:42:20.106Z,1.10
2022-07-29T19:46:11.772Z,1.35
2022-07-29T19:49:56.771Z,1.02
2022-07-29T19:53:41.972Z,1.23
2022-07-29T19:57:26.762Z,1.10
2022-07-29T20:01:23.481Z,1.20
2022-07-29T20:05:08.768Z,1.52
2022-07-29T20:09:00.785Z,1.10
2022-07-29T20:12:45.756Z,1.02
2022-07-29T20:16:33.932Z,0.90
2022-07-29T20:20:18.748Z,1.20
2022-07-29T20:24:10.871Z,1.17
2022-07-29T20:27:52.261Z,1.00
2022-07-29T20:31:43.766Z,1.25
2022-07-29T20:35:22.501Z,1.60
2022-07-29T20:39:13.793Z,1.15
2022-07-29T20:42:58.807Z,1.20
2022-07-29T20:46:50.801Z,1.30
2022-07-29T20:50:29.112Z,1.52
2022-07-29T20:54:20.776Z,1.30
2022-07-29T20:57:59.367Z,1.25
2022-07-29T21:01:50.871Z,1.20
2022-07-29T21:05:35.820Z,1.13
2022-07-29T21:09:27.914Z,1.55
2022-07-29T21:13:12.789Z,1.13
2022-07-29T21:16:58.456Z,1.13
2022-07-29T21:20:43.803Z,1.10
2022-07-29T21:24:35.791Z,0.98
2022-07-29T21:28:38.840Z,1.50
2022-07-29T21:32:32.868Z,1.10
2022-07-29T21:36:47.217Z,1.00
2022-07-29T21:40:23.918Z,1.15
2022-07-29T21:44:08.828Z,0.73
2022-07-29T21:48:00.849Z,0.90
2022-07-29T21:51:39.156Z,0.90
2022-07-29T21:55:31.114Z,0.98
2022-07-29T21:59:23.790Z,1.20
2022-07-29T22:03:08.887Z,0.90
2022-07-29T22:07:01.763Z,0.70
2022-07-29T22:10:47.803Z,0.70
2022-07-29T22:14:39.847Z,0.75
2022-07-29T22:18:24.824Z,0.80
2022-07-29T22:22:16.823Z,0.80
2022-07-29T22:26:03.873Z,0.63
2022-07-29T22:29:48.825Z,0.50
2022-07-29T22:33:40.888Z,0.70
2022-07-29T22:37:19.193Z,0.40
2022-07-29T22:41:10.843Z,0.38
2022-07-29T22:44:54.312Z,0.40
2022-07-29T22:48:45.864Z,0.40
2022-07-29T22:52:30.888Z,0.50
2022-07-29T22:56:22.864Z,0.47
2022-07-29T23:00:15.867Z,0.52
2022-07-29T23:04:03.971Z,0.50
2022-07-29T23:07:55.882Z,0.47
2022-07-29T23:11:34.953Z,0.50
2022-07-29T23:15:26.856Z,0.45
2022-07-29T23:19:18.859Z,0.40
2022-07-29T23:22:57.213Z,0.40
2022-07-29T23:26:48.863Z,0.40
2022-07-29T23:30:35.892Z,0.47
2022-07-29T23:34:27.870Z,0.38
2022-07-29T23:38:12.897Z,0.60
2022-07-29T23:42:04.895Z,0.63
2022-07-29T23:45:44.741Z,0.47
2022-07-29T23:49:39.882Z,0.30
2022-07-29T23:53:24.873Z,0.50
2022-07-29T23:57:16.888Z,0.30
